Oldtown, Kentucky
Current Conditions -  °F | °C
As of 5:15 PM on Monday 20 Oct 2014 (Local Time) from KDWU Reporting Station
Broken Clouds Broken Clouds  
Wind Chill: 61°   Ceiling: 10000
Heat Index: 61°   Visibility: 10mi
Dew Point: 43°   Wind: 8mph
Humidity: 52%   Direction: 230°SW
Pressure: 29.88"   Gusts: 17mph
Location:  38.5266°N, 82.9452°W
Report Text: KDWU 202115Z AUTO 23007G15KT 10SM BKN100 BKN120 16/06 A2988 RMK AO1
Loading
Personal Weather Stations






























Interactive Weather Map
Tropical Storm Tracking
New forecast layout! Learn more

10-Day Weather Forecast

Advertisements
Track Severe Weather on mobile